createdAt,value
2022-09-18T00:00:31.270Z,13.10
2022-09-18T00:03:20.458Z,13.10
2022-09-18T00:06:04.257Z,12.90
2022-09-18T00:08:58.616Z,12.90
2022-09-18T00:11:45.277Z,12.90
2022-09-18T00:14:40.517Z,12.90
2022-09-18T00:17:25.300Z,13.00
2022-09-18T00:20:17.455Z,13.00
2022-09-18T00:23:11.382Z,13.10
2022-09-18T00:25:54.080Z,13.10
2022-09-18T00:28:44.272Z,13.20
2022-09-18T00:31:34.777Z,13.20
2022-09-18T00:34:30.283Z,13.20
2022-09-18T00:37:17.333Z,13.10
2022-09-18T00:40:08.351Z,13.20
2022-09-18T00:42:58.968Z,13.20
2022-09-18T00:45:49.278Z,13.10
2022-09-18T00:48:42.423Z,13.20
2022-09-18T00:51:41.310Z,13.20
2022-09-18T00:54:30.396Z,13.20
2022-09-18T00:57:26.348Z,13.00
2022-09-18T01:00:15.376Z,13.10
2022-09-18T01:03:16.664Z,13.10
2022-09-18T01:06:12.462Z,13.00
2022-09-18T01:09:28.261Z,12.90
2022-09-18T01:12:23.278Z,13.00
2022-09-18T01:15:25.379Z,12.90
2022-09-18T01:18:47.690Z,12.90
2022-09-18T01:21:38.381Z,12.90
2022-09-18T01:24:53.514Z,12.80
2022-09-18T01:27:52.297Z,12.70
2022-09-18T01:30:45.112Z,12.80
2022-09-18T01:33:46.359Z,12.70
2022-09-18T01:36:40.078Z,12.80
2022-09-18T01:39:35.274Z,12.80
2022-09-18T01:42:19.922Z,12.80
2022-09-18T01:45:18.663Z,12.70
2022-09-18T01:48:13.508Z,12.70
2022-09-18T01:51:09.322Z,12.70
2022-09-18T01:54:13.315Z,12.80
2022-09-18T01:57:00.564Z,12.90
2022-09-18T01:59:57.336Z,12.90
2022-09-18T02:03:16.518Z,12.80
2022-09-18T02:06:04.301Z,12.70
2022-09-18T02:08:57.448Z,12.80
2022-09-18T02:11:46.302Z,12.80
2022-09-18T02:14:44.298Z,12.80
2022-09-18T02:18:01.343Z,12.80
2022-09-18T02:21:13.264Z,12.70
2022-09-18T02:24:03.422Z,12.70
2022-09-18T02:26:49.544Z,12.80
2022-09-18T02:29:41.306Z,12.80
2022-09-18T02:32:27.570Z,12.80
2022-09-18T02:35:24.344Z,12.80
2022-09-18T02:38:33.462Z,12.80
2022-09-18T02:41:29.326Z,12.80
2022-09-18T02:44:35.411Z,12.70
2022-09-18T02:47:41.389Z,12.60
2022-09-18T02:50:34.512Z,12.60
2022-09-18T02:53:40.312Z,12.60
2022-09-18T02:56:30.667Z,12.50
2022-09-18T02:59:27.462Z,12.60
2022-09-18T03:02:13.368Z,12.70
2022-09-18T03:05:05.305Z,12.60
2022-09-18T03:08:19.303Z,12.50
2022-09-18T03:11:09.370Z,12.60
2022-09-18T03:13:59.607Z,12.50
2022-09-18T03:16:43.350Z,12.50
2022-09-18T03:19:33.538Z,12.50
2022-09-18T03:22:19.359Z,12.60
2022-09-18T03:25:10.509Z,12.50
2022-09-18T03:28:03.401Z,12.40
2022-09-18T03:30:52.528Z,12.30
2022-09-18T03:33:43.418Z,12.40
2022-09-18T03:36:28.281Z,12.40
2022-09-18T03:39:22.678Z,12.40
2022-09-18T03:42:09.736Z,12.50
2022-09-18T03:45:01.561Z,12.50
2022-09-18T03:47:51.520Z,12.50
2022-09-18T03:50:34.410Z,12.60
2022-09-18T03:53:27.556Z,12.60
2022-09-18T03:56:31.335Z,12.60
2022-09-18T03:59:39.462Z,12.80
2022-09-18T04:02:43.410Z,12.80
2022-09-18T04:05:47.554Z,12.70
2022-09-18T04:09:04.328Z,12.70
2022-09-18T04:11:54.425Z,12.70
2022-09-18T04:14:48.756Z,12.70
2022-09-18T04:17:32.363Z,12.80
2022-09-18T04:20:25.350Z,12.80
2022-09-18T04:23:16.462Z,12.80
2022-09-18T04:26:00.415Z,12.90
2022-09-18T04:28:51.544Z,12.80
2022-09-18T04:31:37.396Z,12.80
2022-09-18T04:34:39.431Z,12.80
2022-09-18T04:37:27.942Z,12.70
2022-09-18T04:40:20.399Z,12.70
2022-09-18T04:43:11.673Z,12.70
2022-09-18T04:46:02.378Z,12.50
2022-09-18T04:48:48.741Z,12.40
2022-09-18T04:51:42.398Z,12.40
2022-09-18T04:54:26.617Z,12.50
2022-09-18T04:57:16.436Z,12.70
2022-09-18T05:00:03.841Z,12.50
2022-09-18T05:03:01.446Z,12.40
2022-09-18T05:05:50.579Z,12.60
2022-09-18T05:08:43.381Z,12.60
2022-09-18T05:11:28.715Z,12.50
2022-09-18T05:14:24.483Z,12.60
2022-09-18T05:17:11.314Z,12.60
2022-09-18T05:20:20.400Z,12.50
2022-09-18T05:23:12.506Z,12.60
2022-09-18T05:25:55.422Z,12.60
2022-09-18T05:28:48.610Z,12.60
2022-09-18T05:31:34.402Z,12.50
2022-09-18T05:34:26.934Z,12.50
2022-09-18T05:37:11.452Z,12.40
2022-09-18T05:40:04.610Z,12.40
2022-09-18T05:43:03.467Z,12.50
2022-09-18T05:46:03.362Z,12.50
2022-09-18T05:49:21.391Z,12.30
2022-09-18T05:52:05.442Z,12.30
2022-09-18T05:54:57.496Z,12.30
2022-09-18T05:57:48.896Z,12.40
2022-09-18T06:00:36.466Z,12.40
2022-09-18T06:03:40.458Z,12.40
2022-09-18T06:06:24.517Z,12.50
2022-09-18T06:09:16.387Z,12.50
2022-09-18T06:12:00.478Z,12.50
2022-09-18T06:14:56.464Z,12.50
2022-09-18T06:17:40.360Z,12.50
2022-09-18T06:20:32.384Z,12.60
2022-09-18T06:23:25.599Z,12.60
2022-09-18T06:26:24.374Z,12.60
2022-09-18T06:29:16.507Z,12.60
2022-09-18T06:32:14.378Z,12.60
2022-09-18T06:35:07.894Z,12.50
2022-09-18T06:38:01.438Z,12.50
2022-09-18T06:41:08.760Z,12.60
2022-09-18T06:44:11.404Z,12.60
2022-09-18T06:47:09.702Z,12.60
2022-09-18T06:50:03.423Z,12.70
2022-09-18T06:52:58.626Z,12.90
2022-09-18T06:56:08.953Z,13.00
2022-09-18T06:59:01.259Z,13.10
2022-09-18T07:01:47.450Z,13.20
2022-09-18T07:05:00.623Z,13.20
2022-09-18T07:07:55.471Z,13.40
2022-09-18T07:11:02.899Z,13.60
2022-09-18T07:13:54.434Z,13.70
2022-09-18T07:16:42.647Z,13.70
2022-09-18T07:19:35.496Z,13.70
2022-09-18T07:22:21.558Z,13.70
2022-09-18T07:25:14.382Z,13.60
2022-09-18T07:28:13.556Z,13.60
2022-09-18T07:31:18.509Z,13.60
2022-09-18T07:34:09.589Z,13.70
2022-09-18T07:36:53.614Z,13.70
2022-09-18T07:39:47.641Z,13.70
2022-09-18T07:43:01.376Z,13.90
2022-09-18T07:46:08.544Z,14.00
2022-09-18T07:49:16.411Z,14.00
2022-09-18T07:52:01.960Z,14.00
2022-09-18T07:55:03.396Z,14.00
2022-09-18T07:57:54.551Z,14.10
2022-09-18T08:01:01.433Z,14.10
2022-09-18T08:03:58.632Z,14.20
2022-09-18T08:07:05.422Z,14.20
2022-09-18T08:10:32.688Z,14.40
2022-09-18T08:13:49.557Z,14.50
2022-09-18T08:16:49.049Z,14.40
2022-09-18T08:20:02.412Z,14.60
2022-09-18T08:23:00.559Z,14.60
2022-09-18T08:26:09.520Z,14.70
2022-09-18T08:28:58.606Z,14.60
2022-09-18T08:32:12.463Z,14.60
2022-09-18T08:34:57.874Z,14.60
2022-09-18T08:38:18.532Z,14.70
2022-09-18T08:41:38.399Z,14.80
2022-09-18T08:44:29.068Z,14.90
2022-09-18T08:47:28.493Z,15.00
2022-09-18T08:50:38.190Z,15.10
2022-09-18T08:53:41.460Z,15.20
2022-09-18T08:56:57.954Z,15.20
2022-09-18T09:00:09.874Z,15.20
2022-09-18T09:03:18.775Z,15.30
2022-09-18T09:06:09.441Z,15.50
2022-09-18T09:09:21.056Z,15.70
2022-09-18T09:12:14.452Z,15.70
2022-09-18T09:15:38.964Z,15.70
2022-09-18T09:18:37.527Z,15.60
2022-09-18T09:21:24.064Z,15.70
2022-09-18T09:24:30.469Z,15.70
2022-09-18T09:27:24.628Z,15.60
2022-09-18T09:30:45.449Z,15.70
2022-09-18T09:34:10.658Z,15.60
2022-09-18T09:37:05.444Z,15.70
2022-09-18T09:40:02.732Z,15.80
2022-09-18T09:43:04.449Z,15.90
2022-09-18T09:46:04.465Z,16.00
2022-09-18T09:49:10.439Z,16.10
2022-09-18T09:52:08.909Z,16.30
2022-09-18T09:55:00.436Z,16.50
2022-09-18T09:58:02.208Z,16.60
2022-09-18T10:00:57.579Z,16.50
2022-09-18T10:04:10.663Z,16.60
2022-09-18T10:07:08.505Z,16.60
2022-09-18T10:10:11.614Z,16.70
2022-09-18T10:13:09.497Z,16.80
2022-09-18T10:16:00.365Z,16.70
2022-09-18T10:18:59.538Z,16.90
2022-09-18T10:21:45.454Z,16.90
2022-09-18T10:24:45.726Z,17.00
2022-09-18T10:27:31.809Z,17.20
2022-09-18T10:30:29.457Z,17.40
2022-09-18T10:33:39.665Z,17.40
2022-09-18T10:36:36.469Z,17.50
2022-09-18T10:39:36.425Z,17.40
2022-09-18T10:42:28.493Z,17.50
2022-09-18T10:45:49.452Z,17.40
2022-09-18T10:48:59.561Z,17.50
2022-09-18T10:51:43.386Z,17.40
2022-09-18T10:54:39.495Z,17.30
2022-09-18T10:57:28.873Z,17.30
2022-09-18T11:00:51.524Z,17.30
2022-09-18T11:03:55.674Z,17.30
2022-09-18T11:06:45.526Z,17.60
2022-09-18T11:09:46.964Z,17.70
2022-09-18T11:12:33.504Z,17.70
2022-09-18T11:15:27.718Z,17.60
2022-09-18T11:18:29.559Z,17.40
2022-09-18T11:21:12.655Z,17.40
2022-09-18T11:24:17.567Z,17.60
2022-09-18T11:27:21.104Z,17.60
2022-09-18T11:30:31.509Z,17.40
2022-09-18T11:33:40.495Z,17.30
2022-09-18T11:36:29.774Z,17.30
2022-09-18T11:39:31.497Z,17.50
2022-09-18T11:42:18.666Z,17.60
2022-09-18T11:45:23.268Z,17.50
2022-09-18T11:48:34.603Z,17.80
2022-09-18T11:51:33.459Z,18.20
2022-09-18T11:54:28.716Z,18.10
2022-09-18T11:57:25.486Z,18.00
2022-09-18T12:00:23.544Z,17.80
2022-09-18T12:03:38.536Z,17.60
2022-09-18T12:06:29.476Z,17.30
2022-09-18T12:09:26.240Z,17.40
2022-09-18T12:12:14.880Z,17.50
2022-09-18T12:15:12.145Z,17.50
2022-09-18T12:18:08.366Z,17.70
2022-09-18T12:20:59.497Z,17.90
2022-09-18T12:23:49.420Z,18.20
2022-09-18T12:26:48.195Z,18.20
2022-09-18T12:30:23.559Z,18.20
2022-09-18T12:33:34.483Z,18.30
2022-09-18T12:36:55.347Z,18.60
2022-09-18T12:40:31.856Z,18.60
2022-09-18T12:43:47.198Z,18.70
2022-09-18T12:47:09.073Z,18.60
2022-09-18T12:50:11.032Z,18.30
2022-09-18T12:53:19.799Z,18.10
2022-09-18T12:56:27.878Z,17.90
2022-09-18T12:59:46.904Z,18.00
2022-09-18T13:02:59.413Z,18.10
2022-09-18T13:05:45.779Z,18.30
2022-09-18T13:08:45.996Z,18.20
2022-09-18T13:11:40.223Z,18.10
2022-09-18T13:14:34.956Z,18.20
2022-09-18T13:17:22.513Z,18.30
2022-09-18T13:20:19.771Z,18.10
2022-09-18T13:23:11.491Z,17.90
2022-09-18T13:25:59.909Z,17.80
2022-09-18T13:28:54.615Z,17.80
2022-09-18T13:31:37.938Z,17.90
2022-09-18T13:34:34.522Z,18.00
2022-09-18T13:37:23.315Z,18.00
2022-09-18T13:40:16.562Z,17.80
2022-09-18T13:43:41.705Z,17.90
2022-09-18T13:46:42.561Z,18.10
2022-09-18T13:49:34.737Z,17.90
2022-09-18T13:53:11.498Z,17.80
2022-09-18T13:55:55.571Z,18.10
2022-09-18T13:59:09.493Z,18.20
2022-09-18T14:02:07.696Z,18.10
2022-09-18T14:05:18.521Z,18.10
2022-09-18T14:08:45.716Z,18.20
2022-09-18T14:11:35.865Z,18.10
2022-09-18T14:14:32.615Z,18.10
2022-09-18T14:17:23.583Z,18.30
2022-09-18T14:20:28.765Z,18.60
2022-09-18T14:24:05.905Z,18.70
2022-09-18T14:27:03.466Z,18.60
2022-09-18T14:29:56.587Z,18.30
2022-09-18T14:32:49.825Z,18.10
2022-09-18T14:35:44.551Z,18.00
2022-09-18T14:38:41.075Z,17.90
2022-09-18T14:41:31.587Z,17.80
2022-09-18T14:44:25.371Z,18.00
2022-09-18T14:47:31.844Z,17.80
2022-09-18T14:50:30.771Z,17.50
2022-09-18T14:53:37.525Z,17.60
2022-09-18T14:56:28.690Z,17.60
2022-09-18T14:59:23.515Z,17.70
2022-09-18T15:02:25.186Z,17.80
2022-09-18T15:05:17.537Z,17.90
2022-09-18T15:08:11.667Z,17.90
2022-09-18T15:11:04.838Z,17.90
2022-09-18T15:13:56.706Z,18.00
2022-09-18T15:16:41.666Z,17.90
2022-09-18T15:19:35.663Z,18.00
2022-09-18T15:22:29.552Z,17.90
2022-09-18T15:25:20.786Z,17.80
2022-09-18T15:28:14.600Z,17.70
2022-09-18T15:31:03.857Z,17.80
2022-09-18T15:34:05.586Z,17.80
2022-09-18T15:36:58.041Z,17.70
2022-09-18T15:39:51.610Z,17.60
2022-09-18T15:42:40.037Z,17.60
2022-09-18T15:45:40.598Z,17.40
2022-09-18T15:48:45.291Z,17.40
2022-09-18T15:51:34.725Z,17.40
2022-09-18T15:54:40.825Z,17.50
2022-09-18T15:57:25.606Z,17.40
2022-09-18T16:00:26.876Z,17.40
2022-09-18T16:03:21.640Z,17.30
2022-09-18T16:06:09.799Z,17.20
2022-09-18T16:09:08.854Z,17.40
2022-09-18T16:11:56.093Z,17.30
2022-09-18T16:14:58.592Z,17.30
2022-09-18T16:18:12.841Z,17.20
2022-09-18T16:21:11.591Z,17.20
2022-09-18T16:24:10.825Z,17.00
2022-09-18T16:26:55.617Z,17.20
2022-09-18T16:29:49.764Z,17.10
2022-09-18T16:32:34.706Z,17.00
2022-09-18T16:35:25.790Z,17.10
2022-09-18T16:38:16.571Z,17.20
2022-09-18T16:41:00.560Z,17.10
2022-09-18T16:43:52.667Z,17.20
2022-09-18T16:46:55.675Z,17.00
2022-09-18T16:49:57.612Z,17.00
2022-09-18T16:52:47.769Z,17.00
2022-09-18T16:55:36.650Z,17.00
2022-09-18T16:58:29.888Z,17.00
2022-09-18T17:01:19.640Z,17.00
2022-09-18T17:04:04.979Z,16.90
2022-09-18T17:06:54.631Z,16.90
2022-09-18T17:09:39.799Z,16.90
2022-09-18T17:12:31.997Z,16.90
2022-09-18T17:15:16.725Z,16.90
2022-09-18T17:18:16.616Z,16.80
2022-09-18T17:21:03.982Z,16.80
2022-09-18T17:23:55.606Z,16.80
2022-09-18T17:26:41.413Z,16.70
2022-09-18T17:29:34.020Z,16.70
2022-09-18T17:32:16.749Z,16.70
2022-09-18T17:35:11.008Z,16.60
2022-09-18T17:38:04.867Z,16.30
2022-09-18T17:43:58.852Z,15.40
2022-09-18T17:46:49.687Z,14.80
2022-09-18T17:49:45.971Z,14.60
2022-09-18T17:52:29.624Z,14.40
2022-09-18T17:55:26.231Z,14.40
2022-09-18T17:58:16.702Z,14.60
2022-09-18T18:01:01.414Z,14.40
2022-09-18T18:03:54.636Z,14.40
2022-09-18T18:06:38.674Z,14.40
2022-09-18T18:09:35.057Z,14.40
2022-09-18T18:12:19.853Z,14.40
2022-09-18T18:15:11.622Z,14.40
2022-09-18T18:18:03.223Z,14.30
2022-09-18T18:20:47.609Z,14.40
2022-09-18T18:23:38.354Z,14.50
2022-09-18T18:26:23.699Z,14.60
2022-09-18T18:29:25.389Z,14.60
2022-09-18T18:32:10.952Z,14.50
2022-09-18T18:35:02.843Z,14.30
2022-09-18T18:37:54.730Z,14.10
2022-09-18T18:40:40.440Z,14.00
2022-09-18T18:43:31.689Z,13.90
2022-09-18T18:46:34.092Z,13.90
2022-09-18T18:49:31.725Z,13.80
2022-09-18T18:52:14.688Z,13.80
2022-09-18T18:55:09.093Z,13.80
2022-09-18T18:57:58.775Z,13.80
2022-09-18T19:00:43.766Z,13.60
2022-09-18T19:03:42.011Z,13.60
2022-09-18T19:06:34.652Z,13.70
2022-09-18T19:09:20.677Z,13.80
2022-09-18T19:12:11.632Z,13.80
2022-09-18T19:14:56.972Z,13.80
2022-09-18T19:17:47.743Z,13.90
2022-09-18T19:20:32.997Z,14.00
2022-09-18T19:23:32.766Z,14.00
2022-09-18T19:26:16.646Z,14.10
2022-09-18T19:29:11.653Z,13.90
2022-09-18T19:31:56.440Z,13.90
2022-09-18T19:34:47.671Z,14.00
2022-09-18T19:37:34.521Z,14.00
2022-09-18T19:40:38.715Z,14.10
2022-09-18T19:43:44.943Z,14.00
2022-09-18T19:46:37.738Z,13.90
2022-09-18T19:49:24.902Z,14.00
2022-09-18T19:52:24.686Z,13.90
2022-09-18T19:55:11.886Z,13.90
2022-09-18T19:58:15.296Z,13.90
2022-09-18T20:01:00.985Z,13.90
2022-09-18T20:03:55.802Z,14.10
2022-09-18T20:06:40.514Z,14.00
2022-09-18T20:09:35.649Z,14.10
2022-09-18T20:12:23.444Z,14.00
2022-09-18T20:15:13.683Z,14.00
2022-09-18T20:18:08.231Z,13.80
2022-09-18T20:20:51.703Z,13.80
2022-09-18T20:23:40.790Z,13.80
2022-09-18T20:26:28.680Z,13.80
2022-09-18T20:29:19.906Z,13.80
2022-09-18T20:32:04.654Z,13.90
2022-09-18T20:34:55.977Z,13.90
2022-09-18T20:37:39.763Z,13.90
2022-09-18T20:40:30.292Z,14.00
2022-09-18T20:43:23.779Z,14.10
2022-09-18T20:46:16.112Z,14.30
2022-09-18T20:49:10.686Z,14.20
2022-09-18T20:51:53.582Z,14.10
2022-09-18T20:54:44.797Z,14.10
2022-09-18T20:57:28.560Z,14.10
2022-09-18T21:00:28.838Z,14.10
2022-09-18T21:03:22.999Z,14.00
2022-09-18T21:06:21.394Z,14.00
2022-09-18T21:09:18.210Z,13.90
2022-09-18T21:12:03.684Z,13.90
2022-09-18T21:14:55.013Z,13.90
2022-09-18T21:17:39.699Z,14.00
2022-09-18T21:20:26.738Z,14.00
2022-09-18T21:23:42.727Z,13.90
2022-09-18T21:26:28.597Z,13.80
2022-09-18T21:29:24.758Z,13.70
2022-09-18T21:32:08.756Z,13.60
2022-09-18T21:35:00.710Z,13.60
2022-09-18T21:38:05.792Z,13.70
2022-09-18T21:40:49.873Z,13.80
2022-09-18T21:43:43.358Z,13.80
2022-09-18T21:46:41.786Z,13.90
2022-09-18T21:49:43.831Z,13.80
2022-09-18T21:52:29.202Z,13.80
2022-09-18T21:55:23.730Z,13.70
2022-09-18T21:58:15.482Z,13.70
2022-09-18T22:00:59.882Z,13.70
2022-09-18T22:03:56.904Z,13.60
2022-09-18T22:06:46.726Z,13.50
2022-09-18T22:09:38.242Z,13.50
2022-09-18T22:12:26.697Z,13.50
2022-09-18T22:15:18.230Z,13.50
2022-09-18T22:18:09.736Z,13.30
2022-09-18T22:20:57.755Z,13.40
2022-09-18T22:23:48.718Z,13.50
2022-09-18T22:26:35.762Z,13.50
2022-09-18T22:29:32.703Z,13.50
2022-09-18T22:32:23.971Z,13.50
2022-09-18T22:35:10.431Z,13.60
2022-09-18T22:38:09.721Z,13.50
2022-09-18T22:40:54.747Z,13.30
2022-09-18T22:43:44.798Z,13.10
2022-09-18T22:46:30.164Z,13.30
2022-09-18T22:49:22.832Z,13.40
2022-09-18T22:52:04.725Z,13.30
2022-09-18T22:54:57.032Z,13.50
2022-09-18T22:57:40.590Z,13.40
2022-09-18T23:00:33.738Z,13.20
2022-09-18T23:03:29.298Z,13.10
2022-09-18T23:06:13.736Z,13.00
2022-09-18T23:09:08.734Z,13.20
2022-09-18T23:11:57.814Z,13.40
2022-09-18T23:14:49.027Z,13.50
2022-09-18T23:17:31.737Z,13.50
2022-09-18T23:20:26.937Z,13.50
2022-09-18T23:23:16.734Z,13.40
2022-09-18T23:26:11.592Z,13.50
2022-09-18T23:29:03.751Z,13.50
2022-09-18T23:31:52.610Z,13.40
2022-09-18T23:34:45.721Z,13.50
2022-09-18T23:37:31.033Z,13.50
2022-09-18T23:40:25.764Z,13.40
2022-09-18T23:43:15.956Z,13.30
2022-09-18T23:46:02.832Z,13.20
2022-09-18T23:48:57.955Z,13.10
2022-09-18T23:51:40.740Z,13.20
2022-09-18T23:54:36.966Z,13.30
2022-09-18T23:57:19.816Z,13.20
